createdAt,value
2018-05-18T00:01:55.611Z,72.40
2018-05-18T00:04:22.509Z,72.80
2018-05-18T00:06:48.985Z,72.80
2018-05-18T00:09:16.364Z,72.90
2018-05-18T00:11:42.819Z,72.90
2018-05-18T00:14:09.709Z,73.00
2018-05-18T00:16:37.216Z,73.00
2018-05-18T00:19:03.874Z,73.20
2018-05-18T00:21:30.367Z,73.20
2018-05-18T00:23:56.903Z,73.20
2018-05-18T00:26:23.419Z,73.20
2018-05-18T00:28:50.285Z,73.30
2018-05-18T00:31:16.792Z,73.60
2018-05-18T00:33:43.232Z,73.50
2018-05-18T00:38:59.445Z,73.70
2018-05-18T00:41:26.367Z,73.80
2018-05-18T00:43:52.801Z,74.10
2018-05-18T00:46:19.304Z,74.20
2018-05-18T00:48:45.914Z,74.20
2018-05-18T00:51:12.369Z,74.20
2018-05-18T00:53:39.243Z,74.10
2018-05-18T00:56:06.076Z,74.50
2018-05-18T00:58:32.536Z,74.30
2018-05-18T01:01:00.039Z,74.40
2018-05-18T01:03:26.482Z,74.50
2018-05-18T01:05:53.527Z,74.50
2018-05-18T01:08:21.075Z,74.60
2018-05-18T01:10:47.523Z,74.60
2018-05-18T01:13:14.763Z,74.70
2018-05-18T01:15:41.200Z,74.80
2018-05-18T01:18:07.731Z,75.10
2018-05-18T01:20:34.524Z,75.20
2018-05-18T01:23:02.945Z,75.30
2018-05-18T01:25:29.453Z,75.60
2018-05-18T01:27:55.905Z,75.60
2018-05-18T01:30:22.475Z,75.70
2018-05-18T01:32:48.920Z,75.40
2018-05-18T01:35:15.357Z,75.70
2018-05-18T01:37:41.831Z,75.50
2018-05-18T01:40:08.308Z,75.50
2018-05-18T01:42:34.743Z,75.60
2018-05-18T01:45:01.949Z,75.40
2018-05-18T01:47:28.828Z,75.30
2018-05-18T01:49:55.496Z,75.30
2018-05-18T01:52:21.993Z,75.30
2018-05-18T01:54:48.491Z,75.50
2018-05-18T01:57:15.297Z,75.40
2018-05-18T01:59:41.743Z,75.10
2018-05-18T02:02:08.230Z,75.20
2018-05-18T02:04:34.670Z,75.20
2018-05-18T02:07:02.666Z,75.10
2018-05-18T02:09:29.284Z,75.30
2018-05-18T02:11:55.825Z,75.20
2018-05-18T02:14:22.326Z,75.10
2018-05-18T02:16:48.769Z,75.00
2018-05-18T02:19:15.206Z,75.30
2018-05-18T02:21:41.644Z,75.00
2018-05-18T02:24:08.083Z,75.20
2018-05-18T02:26:34.566Z,75.30
2018-05-18T02:29:01.200Z,75.20
2018-05-18T02:31:27.651Z,75.50
2018-05-18T02:33:54.921Z,75.60
2018-05-18T02:36:22.027Z,75.40
2018-05-18T02:38:48.631Z,75.90
2018-05-18T02:41:15.722Z,76.10
2018-05-18T02:43:42.568Z,76.30
2018-05-18T02:46:09.442Z,76.60
2018-05-18T02:48:36.612Z,76.60
2018-05-18T02:51:03.737Z,76.80
2018-05-18T02:53:30.547Z,76.90
2018-05-18T02:55:57.431Z,77.00
2018-05-18T02:58:23.891Z,77.10
2018-05-18T03:00:50.381Z,77.30
2018-05-18T03:03:17.326Z,77.30
2018-05-18T03:05:44.142Z,77.20
2018-05-18T03:08:10.690Z,77.20
2018-05-18T03:10:37.111Z,77.20
2018-05-18T03:13:04.685Z,77.40
2018-05-18T03:15:31.190Z,77.20
2018-05-18T03:17:59.148Z,77.20
2018-05-18T03:20:25.582Z,77.30
2018-05-18T03:22:52.389Z,77.30
2018-05-18T03:25:19.202Z,77.30
2018-05-18T03:27:46.015Z,77.20
2018-05-18T03:30:12.636Z,77.30
2018-05-18T03:32:39.454Z,77.20
2018-05-18T03:35:05.990Z,77.20
2018-05-18T03:37:32.571Z,77.10
2018-05-18T03:39:59.103Z,77.20
2018-05-18T03:42:25.963Z,77.10
2018-05-18T03:44:53.406Z,77.20
2018-05-18T03:47:19.915Z,77.30
2018-05-18T03:49:46.356Z,77.30
2018-05-18T03:52:12.863Z,77.40
2018-05-18T03:54:40.983Z,77.20
2018-05-18T03:57:07.587Z,77.00
2018-05-18T03:59:35.015Z,76.80
2018-05-18T04:02:13.635Z,76.80
2018-05-18T04:04:56.079Z,76.90
2018-05-18T04:07:36.079Z,76.80
2018-05-18T04:10:02.726Z,76.80
2018-05-18T04:12:29.593Z,76.70
2018-05-18T04:14:56.641Z,76.80
2018-05-18T04:17:25.406Z,76.80
2018-05-18T04:19:52.590Z,76.60
2018-05-18T04:22:19.863Z,76.50
2018-05-18T04:24:46.389Z,76.70
2018-05-18T04:27:12.835Z,76.40
2018-05-18T04:29:39.274Z,76.30
2018-05-18T04:32:05.815Z,76.10
2018-05-18T04:34:33.154Z,76.10
2018-05-18T04:37:00.014Z,76.30
2018-05-18T04:39:26.535Z,76.50
2018-05-18T04:41:53.136Z,76.60
